createdAt,value
2018-08-28T00:01:23.266Z,83.36
2018-08-28T00:03:53.400Z,83.29
2018-08-28T00:06:23.557Z,83.23
2018-08-28T00:08:55.441Z,86.02
2018-08-28T00:11:24.822Z,86.31
2018-08-28T00:13:56.722Z,85.29
2018-08-28T00:16:26.958Z,85.96
2018-08-28T00:18:56.387Z,85.56
2018-08-28T00:21:25.743Z,84.67
2018-08-28T00:23:56.515Z,86.46
2018-08-28T00:26:25.891Z,86.93
2018-08-28T00:28:56.142Z,85.96
2018-08-28T00:31:25.843Z,85.91
2018-08-28T00:33:55.233Z,86.78
2018-08-28T00:36:24.605Z,86.75
2018-08-28T00:38:54.001Z,87.28
2018-08-28T00:41:23.422Z,87.71
2018-08-28T00:43:53.402Z,87.57
2018-08-28T00:46:25.813Z,88.02
2018-08-28T00:48:55.516Z,87.08
2018-08-28T00:51:26.214Z,86.90
2018-08-28T00:53:56.085Z,87.40
2018-08-28T00:56:28.091Z,86.81
2018-08-28T00:58:57.726Z,86.07
2018-08-28T01:01:27.875Z,88.51
2018-08-28T01:03:57.621Z,87.56
2018-08-28T01:06:26.966Z,88.31
2018-08-28T01:08:56.375Z,87.87
2018-08-28T01:11:25.714Z,87.23
2018-08-28T01:13:55.354Z,86.43
2018-08-28T01:16:24.715Z,86.89
2018-08-28T01:18:54.526Z,87.32
2018-08-28T01:21:24.775Z,87.17
2018-08-28T01:23:54.445Z,85.90
2018-08-28T01:26:24.134Z,86.11
2018-08-28T01:28:53.559Z,86.64
2018-08-28T01:31:22.943Z,87.39
2018-08-28T01:33:52.954Z,87.11
2018-08-28T01:36:22.659Z,87.18
2018-08-28T01:38:52.101Z,87.25
2018-08-28T01:41:21.456Z,86.59
2018-08-28T01:43:50.805Z,87.33
2018-08-28T01:46:20.749Z,86.79
2018-08-28T01:48:50.113Z,86.26
2018-08-28T01:51:19.466Z,86.69
2018-08-28T01:53:49.615Z,86.59
2018-08-28T01:56:19.015Z,86.78
2018-08-28T01:58:48.476Z,86.08
2018-08-28T02:01:17.828Z,86.54
2018-08-28T02:03:47.190Z,85.77
2018-08-28T02:06:16.946Z,86.25
2018-08-28T02:08:46.296Z,85.92
2018-08-28T02:11:15.707Z,86.02
2018-08-28T02:13:45.050Z,86.12
2018-08-28T02:16:14.405Z,86.20
2018-08-28T02:18:44.191Z,86.87
2018-08-28T02:21:13.582Z,86.34
2018-08-28T02:23:42.977Z,86.20
2018-08-28T02:26:12.317Z,86.16
2018-08-28T02:28:41.953Z,86.54
2018-08-28T02:31:11.484Z,85.57
2018-08-28T02:33:41.011Z,86.60
2018-08-28T02:36:10.890Z,86.27
2018-08-28T02:38:40.255Z,86.09
2018-08-28T02:41:09.639Z,86.69
2018-08-28T02:43:38.973Z,86.64
2018-08-28T02:46:08.837Z,86.84
2018-08-28T02:48:38.187Z,87.25
2018-08-28T02:51:07.558Z,88.81
2018-08-28T02:53:36.909Z,88.14
2018-08-28T02:56:06.591Z,87.08
2018-08-28T02:58:35.992Z,87.40
2018-08-28T03:01:05.454Z,88.88
2018-08-28T03:03:34.879Z,88.91
2018-08-28T03:06:04.282Z,88.36
2018-08-28T03:08:34.094Z,87.53
2018-08-28T03:11:03.465Z,87.15
2018-08-28T03:13:32.838Z,87.54
2018-08-28T03:16:02.227Z,88.10
2018-08-28T03:18:31.970Z,87.20
2018-08-28T03:21:01.319Z,87.51
2018-08-28T03:23:30.774Z,87.43
2018-08-28T03:26:00.766Z,87.61
2018-08-28T03:28:30.163Z,88.32
2018-08-28T03:30:59.555Z,88.17
2018-08-28T03:33:28.972Z,88.26
2018-08-28T03:35:58.622Z,88.20
2018-08-28T03:38:29.831Z,88.09
2018-08-28T03:40:59.281Z,88.08
2018-08-28T03:43:28.669Z,88.28
2018-08-28T03:45:58.019Z,87.78
2018-08-28T03:48:27.383Z,87.97
2018-08-28T03:50:57.033Z,87.38
2018-08-28T03:53:26.398Z,87.20
2018-08-28T03:55:55.769Z,87.64
2018-08-28T03:58:25.591Z,87.01
2018-08-28T04:00:54.954Z,86.68
2018-08-28T04:03:24.334Z,86.44
2018-08-28T04:05:53.826Z,86.42
2018-08-28T04:08:23.488Z,87.05
2018-08-28T04:10:52.859Z,86.93
2018-08-28T04:13:22.326Z,86.77
2018-08-28T04:15:51.739Z,86.60
2018-08-28T04:18:21.442Z,87.18
2018-08-28T04:20:50.806Z,86.80
2018-08-28T04:23:20.158Z,87.00
2018-08-28T04:25:49.522Z,86.27
2018-08-28T04:28:19.214Z,86.09
2018-08-28T04:30:48.623Z,85.82
2018-08-28T04:33:18.227Z,86.22
2018-08-28T04:35:47.539Z,86.08
2018-08-28T04:38:16.872Z,86.12
2018-08-28T04:40:46.210Z,85.98
2018-08-28T04:43:15.626Z,85.77
2018-08-28T04:45:45.966Z,86.37
2018-08-28T04:48:15.436Z,86.28
2018-08-28T04:50:45.393Z,86.36
2018-08-28T04:53:14.774Z,85.85
2018-08-28T04:55:45.897Z,86.14
2018-08-28T04:58:15.261Z,85.80
2018-08-28T05:00:45.082Z,85.92
2018-08-28T05:03:15.133Z,86.27
2018-08-28T05:05:45.785Z,85.19
2018-08-28T05:08:15.111Z,85.25
2018-08-28T05:10:44.484Z,85.81
2018-08-28T05:13:17.167Z,84.82
2018-08-28T05:15:46.530Z,85.60
2018-08-28T05:18:15.909Z,85.61
2018-08-28T05:20:46.608Z,85.96
2018-08-28T05:23:19.048Z,85.53
2018-08-28T05:25:48.443Z,85.61
2018-08-28T05:28:17.941Z,85.32
2018-08-28T05:30:47.353Z,85.08
2018-08-28T05:33:16.783Z,84.65
2018-08-28T05:35:47.062Z,85.11
2018-08-28T05:38:16.506Z,84.37
2018-08-28T05:40:45.875Z,84.44
2018-08-28T05:43:15.273Z,85.00
2018-08-28T05:45:46.752Z,84.29
2018-08-28T05:48:16.139Z,84.26
2018-08-28T05:50:45.910Z,83.82
2018-08-28T05:53:15.275Z,83.84
2018-08-28T05:55:45.847Z,83.20
2018-08-28T05:58:15.833Z,83.37
2018-08-28T06:00:45.336Z,84.11
2018-08-28T06:03:14.737Z,82.89
2018-08-28T06:05:45.743Z,81.95
2018-08-28T06:08:21.422Z,82.58
2018-08-28T06:10:50.905Z,83.27
2018-08-28T06:13:20.246Z,82.62
2018-08-28T06:15:51.310Z,82.00
2018-08-28T06:18:20.872Z,81.65
2018-08-28T06:20:51.309Z,80.99
2018-08-28T06:23:20.688Z,81.27
2018-08-28T06:25:50.243Z,80.20
2018-08-28T06:28:19.945Z,80.13
2018-08-28T06:30:49.287Z,79.29
2018-08-28T06:33:22.224Z,77.73
2018-08-28T06:35:53.065Z,78.52
2018-08-28T06:38:22.946Z,75.82
2018-08-28T06:40:52.340Z,76.34
2018-08-28T06:43:25.056Z,77.70
2018-08-28T06:45:54.620Z,74.20
2018-08-28T06:48:24.245Z,74.08
2018-08-28T06:50:54.797Z,73.84
2018-08-28T06:53:25.151Z,73.45
2018-08-28T06:55:54.512Z,72.64
2018-08-28T06:58:23.926Z,70.87
2018-08-28T07:00:53.918Z,70.51
2018-08-28T07:03:23.359Z,70.36
2018-08-28T07:05:53.264Z,69.94
2018-08-28T07:08:22.653Z,69.89
2018-08-28T07:10:52.547Z,68.87
2018-08-28T07:13:21.917Z,67.87
2018-08-28T07:15:51.253Z,68.29
2018-08-28T07:18:20.613Z,66.52
2018-08-28T07:20:50.913Z,66.83
2018-08-28T07:23:20.274Z,66.85
2018-08-28T07:25:49.691Z,67.93
2018-08-28T07:28:19.578Z,66.59
2018-08-28T07:30:48.919Z,65.62
2018-08-28T07:33:18.518Z,67.71
2018-08-28T07:35:47.933Z,67.14
2018-08-28T07:38:18.476Z,66.57
2018-08-28T07:41:09.766Z,67.10
2018-08-28T07:43:39.226Z,67.15
2018-08-28T07:46:08.647Z,67.88
2018-08-28T07:48:41.555Z,67.80
2018-08-28T07:51:11.086Z,65.92
2018-08-28T07:53:40.557Z,64.72
2018-08-28T07:56:10.858Z,65.54
2018-08-28T07:58:40.575Z,65.58
2018-08-28T08:01:10.350Z,65.82
2018-08-28T08:03:43.286Z,65.70
2018-08-28T08:06:12.698Z,65.10
2018-08-28T08:08:43.094Z,65.82
2018-08-28T08:11:14.324Z,64.56
2018-08-28T08:13:43.991Z,62.82
2018-08-28T08:16:13.547Z,64.16
2018-08-28T08:18:43.784Z,64.94
2018-08-28T08:21:13.192Z,62.89
2018-08-28T08:23:49.111Z,63.60
2018-08-28T08:26:18.495Z,64.05
2018-08-28T08:28:48.901Z,64.04
2018-08-28T08:31:19.977Z,62.12
2018-08-28T08:33:50.030Z,62.79
2018-08-28T08:36:19.405Z,62.04
2018-08-28T08:38:49.162Z,59.06
2018-08-28T08:41:18.589Z,58.33
2018-08-28T08:43:48.622Z,59.43
2018-08-28T08:46:20.859Z,59.00
2018-08-28T08:48:50.725Z,57.60
2018-08-28T08:51:21.263Z,58.18
2018-08-28T08:53:50.663Z,58.45
2018-08-28T08:56:20.613Z,59.03
2018-08-28T08:58:54.600Z,57.58
2018-08-28T09:01:25.358Z,57.11
2018-08-28T09:03:57.450Z,56.10
2018-08-28T09:06:31.479Z,57.98
2018-08-28T09:09:03.310Z,57.18
2018-08-28T09:14:13.241Z,55.50
2018-08-28T09:16:45.687Z,54.19
2018-08-28T09:19:15.639Z,53.15
2018-08-28T09:21:44.998Z,54.52
2018-08-28T09:24:14.398Z,54.04
2018-08-28T09:26:45.268Z,53.78
2018-08-28T09:29:16.318Z,52.59
2018-08-28T09:31:48.361Z,52.48
2018-08-28T09:34:19.766Z,53.64
2018-08-28T09:36:49.144Z,51.89
2018-08-28T09:39:18.580Z,52.49
2018-08-28T09:41:49.369Z,51.48
2018-08-28T09:44:19.791Z,52.16
2018-08-28T09:46:50.078Z,52.52
2018-08-28T09:49:21.573Z,51.35
2018-08-28T09:52:08.738Z,52.39
2018-08-28T09:54:39.080Z,51.95
2018-08-28T09:57:08.817Z,51.72
2018-08-28T09:59:39.536Z,51.98
2018-08-28T10:02:09.761Z,51.86
2018-08-28T10:04:42.188Z,51.74
2018-08-28T10:07:11.954Z,52.28
2018-08-28T10:09:43.323Z,51.27
2018-08-28T10:12:12.741Z,51.27
2018-08-28T10:14:44.331Z,49.47
2018-08-28T10:17:15.427Z,48.99
2018-08-28T10:19:45.576Z,50.06
2018-08-28T10:22:16.891Z,50.17
2018-08-28T10:24:46.284Z,49.58
2018-08-28T10:27:17.940Z,51.39
2018-08-28T10:29:49.334Z,50.47
2018-08-28T10:32:20.500Z,51.35
2018-08-28T10:34:49.967Z,49.60
2018-08-28T10:37:21.941Z,49.50
2018-08-28T10:39:52.910Z,49.90
2018-08-28T10:42:24.078Z,48.69
2018-08-28T10:44:53.499Z,49.55
2018-08-28T10:47:22.937Z,48.73
2018-08-28T10:49:53.301Z,49.59
2018-08-28T10:52:24.993Z,50.42
2018-08-28T10:54:54.504Z,50.04
2018-08-28T10:57:29.135Z,49.33
2018-08-28T10:59:59.242Z,48.68
2018-08-28T11:02:33.240Z,48.31
2018-08-28T11:05:02.670Z,50.75
2018-08-28T11:07:35.279Z,49.45
2018-08-28T11:10:05.313Z,49.79
2018-08-28T11:12:35.442Z,47.57
2018-08-28T11:15:05.488Z,46.63
2018-08-28T11:17:37.867Z,45.93
2018-08-28T11:20:07.326Z,46.54
2018-08-28T11:22:39.752Z,46.51
2018-08-28T11:25:10.197Z,45.47
2018-08-28T11:27:39.874Z,47.57
2018-08-28T11:30:10.277Z,48.01
2018-08-28T11:32:41.097Z,46.25
2018-08-28T11:35:10.573Z,46.97
2018-08-28T11:37:43.717Z,46.49
2018-08-28T11:40:14.708Z,46.76
2018-08-28T11:42:47.460Z,45.98
2018-08-28T11:45:18.066Z,46.37
2018-08-28T11:47:47.497Z,47.01
2018-08-28T11:50:17.312Z,46.69
2018-08-28T11:52:49.691Z,46.67
2018-08-28T11:55:20.674Z,45.38
2018-08-28T11:57:52.736Z,44.83
2018-08-28T12:00:23.938Z,45.76
2018-08-28T12:02:53.317Z,45.31
2018-08-28T12:05:24.046Z,44.93
2018-08-28T12:07:54.473Z,45.27
2018-08-28T12:10:24.398Z,45.48
2018-08-28T12:12:54.454Z,45.53
2018-08-28T12:15:24.509Z,44.35
2018-08-28T12:17:54.891Z,45.27
2018-08-28T12:20:25.847Z,44.05
2018-08-28T12:22:56.147Z,45.31
2018-08-28T12:25:26.606Z,45.53
2018-08-28T12:27:55.954Z,45.02
2018-08-28T12:30:25.679Z,44.26
2018-08-28T12:32:55.063Z,45.53
2018-08-28T12:35:25.370Z,44.44
2018-08-28T12:37:56.710Z,43.79
2018-08-28T12:40:26.953Z,43.97
2018-08-28T12:42:57.253Z,43.62
2018-08-28T12:45:26.646Z,43.56
2018-08-28T12:47:56.013Z,44.12
2018-08-28T12:50:27.759Z,44.25
2018-08-28T12:52:58.425Z,43.50
2018-08-28T12:55:29.885Z,44.78
2018-08-28T12:58:00.231Z,44.24
2018-08-28T13:00:32.235Z,43.66
2018-08-28T13:03:05.297Z,42.97
2018-08-28T13:05:35.243Z,44.03
2018-08-28T13:08:05.139Z,44.44
2018-08-28T13:10:37.420Z,42.61
2018-08-28T13:13:06.854Z,44.56
2018-08-28T13:15:37.871Z,43.51
2018-08-28T13:18:08.307Z,42.95
2018-08-28T13:20:40.748Z,44.27
2018-08-28T13:23:12.463Z,43.00
2018-08-28T13:25:42.058Z,45.02
2018-08-28T13:28:11.649Z,44.81
2018-08-28T13:30:45.866Z,44.39
2018-08-28T13:33:16.406Z,43.56
2018-08-28T13:35:47.087Z,43.64
2018-08-28T13:38:19.081Z,45.31
2018-08-28T13:40:49.161Z,44.07
2018-08-28T13:43:19.928Z,43.88
2018-08-28T13:45:50.799Z,44.08
2018-08-28T13:48:23.218Z,44.61
2018-08-28T13:50:56.331Z,44.23
2018-08-28T13:53:27.308Z,43.13
2018-08-28T13:55:56.995Z,43.47
2018-08-28T13:58:27.432Z,42.97
2018-08-28T14:00:58.287Z,42.76
2018-08-28T14:03:27.838Z,43.65
2018-08-28T14:06:01.315Z,43.43
2018-08-28T14:08:31.545Z,42.08
2018-08-28T14:11:03.870Z,42.23
2018-08-28T14:16:46.023Z,42.03
2018-08-28T14:19:18.354Z,43.19
2018-08-28T14:21:48.594Z,42.55
2018-08-28T14:24:20.666Z,41.69
2018-08-28T14:26:51.959Z,42.12
2018-08-28T14:29:22.280Z,41.14
2018-08-28T14:31:51.622Z,40.32
2018-08-28T14:34:25.794Z,41.18
2018-08-28T14:40:02.548Z,40.16
2018-08-28T14:42:34.968Z,40.88
2018-08-28T14:45:07.386Z,40.88
2018-08-28T14:47:41.147Z,40.20
2018-08-28T14:50:12.213Z,40.05
2018-08-28T14:52:41.682Z,40.74
2018-08-28T14:55:13.505Z,40.38
2018-08-28T14:57:49.339Z,40.64
2018-08-28T15:00:21.809Z,39.32
2018-08-28T15:02:53.405Z,38.58
2018-08-28T15:05:25.758Z,39.33
2018-08-28T15:07:55.282Z,39.79
2018-08-28T15:10:30.369Z,38.56
2018-08-28T15:13:00.914Z,40.44
2018-08-28T15:15:30.574Z,39.23
2018-08-28T15:18:00.560Z,40.84
2018-08-28T15:20:31.697Z,40.16
2018-08-28T15:23:01.346Z,39.05
2018-08-28T15:25:33.415Z,39.48
2018-08-28T15:28:04.783Z,39.43
2018-08-28T15:30:35.182Z,39.78
2018-08-28T15:33:05.299Z,39.83
2018-08-28T15:35:36.055Z,39.58
2018-08-28T15:38:05.986Z,39.52
2018-08-28T15:40:36.773Z,39.55
2018-08-28T15:43:08.228Z,40.50
2018-08-28T15:45:38.158Z,40.57
2018-08-28T15:48:08.734Z,40.61
2018-08-28T15:50:38.233Z,39.68
2018-08-28T15:53:11.935Z,40.23
2018-08-28T15:55:46.231Z,40.53
2018-08-28T15:58:19.268Z,40.20
2018-08-28T16:00:50.298Z,40.30
2018-08-28T16:03:21.041Z,40.09
2018-08-28T16:05:51.372Z,41.26
2018-08-28T16:08:23.200Z,41.31
2018-08-28T16:10:53.869Z,41.03
2018-08-28T16:13:23.937Z,40.89
2018-08-28T16:15:53.355Z,42.22
2018-08-28T16:18:23.737Z,42.68
2018-08-28T16:20:53.104Z,41.90
2018-08-28T16:23:32.154Z,42.49
2018-08-28T16:26:01.529Z,43.07
2018-08-28T16:28:30.943Z,43.04
2018-08-28T16:31:02.361Z,43.55
2018-08-28T16:33:31.818Z,43.03
2018-08-28T16:36:06.089Z,43.73
2018-08-28T16:38:36.665Z,43.18
2018-08-28T16:41:07.769Z,43.51
2018-08-28T16:43:46.672Z,44.24
2018-08-28T16:46:17.755Z,44.17
2018-08-28T16:48:49.001Z,44.64
2018-08-28T16:51:18.409Z,45.27
2018-08-28T16:53:49.160Z,44.40
2018-08-28T16:56:20.234Z,45.33
2018-08-28T16:58:50.279Z,45.40
2018-08-28T17:01:22.389Z,45.79
2018-08-28T17:03:53.189Z,46.05
2018-08-28T17:06:22.659Z,46.29
2018-08-28T17:08:55.244Z,45.63
2018-08-28T17:11:25.845Z,46.66
2018-08-28T17:14:05.243Z,47.05
2018-08-28T17:16:38.723Z,46.54
2018-08-28T17:19:12.359Z,47.70
2018-08-28T17:22:06.348Z,46.74
2018-08-28T17:24:40.043Z,48.56
2018-08-28T17:27:17.595Z,48.99
2018-08-28T17:29:56.083Z,48.94
2018-08-28T17:32:25.551Z,48.73
2018-08-28T17:34:56.704Z,48.30
2018-08-28T17:37:26.184Z,48.51
2018-08-28T17:39:56.335Z,49.42
2018-08-28T17:42:27.725Z,50.12
2018-08-28T17:45:00.366Z,50.82
2018-08-28T17:47:30.582Z,49.79
2018-08-28T17:50:00.014Z,51.36
2018-08-28T17:52:30.363Z,51.27
2018-08-28T17:55:04.981Z,52.29
2018-08-28T17:57:35.606Z,51.48
2018-08-28T18:00:08.160Z,51.70
2018-08-28T18:02:40.585Z,52.24
2018-08-28T18:05:10.123Z,52.92
2018-08-28T18:07:40.245Z,53.13
2018-08-28T18:10:18.932Z,54.63
2018-08-28T18:12:48.428Z,54.25
2018-08-28T18:15:18.251Z,54.48
2018-08-28T18:17:48.523Z,55.03
2018-08-28T18:20:20.446Z,54.04
2018-08-28T18:22:49.855Z,54.06
2018-08-28T18:25:22.517Z,53.87
2018-08-28T18:27:52.040Z,54.26
2018-08-28T18:30:23.000Z,54.24
2018-08-28T18:32:53.506Z,54.24
2018-08-28T18:35:24.355Z,54.62
2018-08-28T18:37:54.427Z,55.20
2018-08-28T18:40:24.411Z,55.53
2018-08-28T18:42:55.516Z,55.42
2018-08-28T18:45:27.030Z,56.87
2018-08-28T18:47:56.986Z,56.65
2018-08-28T18:50:27.807Z,56.67
2018-08-28T18:52:58.712Z,57.08
2018-08-28T18:55:30.578Z,57.31
2018-08-28T18:58:01.045Z,57.15
2018-08-28T19:00:32.638Z,58.69
2018-08-28T19:03:04.168Z,58.22
2018-08-28T19:05:35.150Z,58.21
2018-08-28T19:08:07.696Z,58.37
2018-08-28T19:10:40.291Z,59.00
2018-08-28T19:13:12.957Z,59.29
2018-08-28T19:15:46.702Z,59.66
2018-08-28T19:18:17.557Z,60.03
2018-08-28T19:20:48.915Z,59.53
2018-08-28T19:23:21.614Z,60.16
2018-08-28T19:25:53.756Z,61.11
2018-08-28T19:28:36.854Z,61.10
2018-08-28T19:31:08.422Z,60.19
2018-08-28T19:33:45.089Z,61.27
2018-08-28T19:36:15.509Z,60.06
2018-08-28T19:38:49.506Z,60.98
2018-08-28T19:41:40.272Z,60.16
2018-08-28T19:44:11.678Z,60.54
2018-08-28T19:46:43.222Z,61.28
2018-08-28T19:49:15.104Z,61.39
2018-08-28T19:51:44.535Z,60.69
2018-08-28T19:54:16.335Z,61.92
2018-08-28T19:56:46.759Z,61.42
2018-08-28T19:59:18.315Z,61.88
2018-08-28T20:01:52.044Z,62.91
2018-08-28T20:04:21.955Z,63.14
2018-08-28T20:06:58.533Z,62.71
2018-08-28T20:09:29.831Z,64.10
2018-08-28T20:12:03.649Z,62.32
2018-08-28T20:14:39.137Z,63.64
2018-08-28T20:17:08.647Z,63.35
2018-08-28T20:19:38.759Z,63.83
2018-08-28T20:22:11.687Z,63.99
2018-08-28T20:24:44.494Z,64.04
2018-08-28T20:27:14.523Z,64.51
2018-08-28T20:29:44.265Z,63.96
2018-08-28T20:32:15.177Z,64.40
2018-08-28T20:34:47.445Z,65.69
2018-08-28T20:37:18.950Z,65.36
2018-08-28T20:39:50.849Z,65.40
2018-08-28T20:42:24.366Z,66.03
2018-08-28T20:44:55.067Z,64.24
2018-08-28T20:47:28.412Z,63.99
2018-08-28T20:50:00.522Z,65.89
2018-08-28T20:52:33.404Z,65.08
2018-08-28T20:55:05.188Z,65.88
2018-08-28T20:57:36.686Z,65.71
2018-08-28T21:00:07.090Z,65.85
2018-08-28T21:02:36.535Z,66.26
2018-08-28T21:05:05.986Z,66.75
2018-08-28T21:07:35.989Z,67.01
2018-08-28T21:10:05.494Z,67.46
2018-08-28T21:12:37.081Z,67.42
2018-08-28T21:15:07.734Z,67.11
2018-08-28T21:17:39.311Z,66.67
2018-08-28T21:20:10.958Z,67.18
2018-08-28T21:22:43.080Z,67.47
2018-08-28T21:25:14.116Z,67.42
2018-08-28T21:27:44.817Z,68.79
2018-08-28T21:30:15.710Z,67.84
2018-08-28T21:32:45.098Z,68.71
2018-08-28T21:35:20.399Z,68.71
2018-08-28T21:37:53.633Z,69.28
2018-08-28T21:40:23.782Z,68.75
2018-08-28T21:42:53.170Z,69.34
2018-08-28T21:45:23.227Z,69.43
2018-08-28T21:47:56.464Z,69.51
2018-08-28T21:50:27.195Z,69.13
2018-08-28T21:52:58.712Z,69.28
2018-08-28T21:55:29.713Z,69.42
2018-08-28T21:57:59.122Z,69.90
2018-08-28T22:00:29.219Z,69.80
2018-08-28T22:02:58.600Z,70.95
2018-08-28T22:05:31.390Z,69.74
2018-08-28T22:08:04.746Z,70.69
2018-08-28T22:10:34.645Z,70.74
2018-08-28T22:13:04.159Z,70.03
2018-08-28T22:15:33.563Z,71.30
2018-08-28T22:18:05.282Z,71.18
2018-08-28T22:20:34.754Z,70.81
2018-08-28T22:23:04.287Z,70.67
2018-08-28T22:25:33.730Z,71.28
2018-08-28T22:28:03.458Z,71.92
2018-08-28T22:30:32.829Z,71.47
2018-08-28T22:33:02.298Z,72.11
2018-08-28T22:35:31.685Z,71.64
2018-08-28T22:38:01.592Z,72.46
2018-08-28T22:40:33.277Z,71.46
2018-08-28T22:43:03.020Z,72.85
2018-08-28T22:45:32.422Z,73.19
2018-08-28T22:48:04.511Z,71.87
2018-08-28T22:50:35.285Z,72.20
2018-08-28T22:53:06.933Z,73.12
2018-08-28T22:55:36.626Z,73.84
2018-08-28T22:58:06.250Z,73.69
2018-08-28T23:00:36.575Z,72.37
2018-08-28T23:03:06.958Z,73.10
2018-08-28T23:05:36.626Z,73.87
2018-08-28T23:08:06.450Z,73.46
2018-08-28T23:10:36.833Z,73.44
2018-08-28T23:13:07.249Z,73.70
2018-08-28T23:15:37.291Z,73.30
2018-08-28T23:18:08.355Z,73.95
2018-08-28T23:20:37.797Z,73.81
2018-08-28T23:23:09.923Z,73.86
2018-08-28T23:25:40.278Z,74.88
2018-08-28T23:28:11.045Z,74.46
2018-08-28T23:30:40.430Z,73.90
2018-08-28T23:33:09.931Z,74.88
2018-08-28T23:35:39.270Z,75.41
2018-08-28T23:38:09.060Z,74.74
2018-08-28T23:40:38.428Z,74.95
2018-08-28T23:43:09.138Z,74.67
2018-08-28T23:45:38.568Z,74.13
2018-08-28T23:48:08.034Z,75.07
2018-08-28T23:50:37.410Z,75.52
2018-08-28T23:53:07.470Z,74.30
2018-08-28T23:55:38.018Z,74.62
2018-08-28T23:58:07.401Z,75.31
